Airfield :







YOU CAN JOIN US ON...

 
LOGIN :

Register | Disclaimer

   EN    FR    IT 

 









Legend :    VFR   Marginal VFR   IFR   Intensive IFR   Very Intensive IFR
Visi :
Ceiling :
>= 8 km
>= 3000ft
5 to 8 km
1000 to 3000 ft
1500m to 5 km
500 to 1000 ft
800 to 1500m
200 to 500 ft
< 800m
< 200 ft
Symbols :   Thunderstorms  Fog  Heavy snow  Heavy precipitations  Wind > 20 kt






- Airport Elevation : 244 ft
- IATA code : YQB


CYQB - Quebec - Jean Lesage Int.

CURRENT METAR :
  • 022100Z 24019KT 30SM FEW065 SCT150 SCT240 17/02 A2978 RMK SC2AC2CI1 CI TR SLP088 DENSITY ALT 800FT

EXPIRED METARs :
  • 022000Z 25016G22KT 30SM FEW060 SCT150 SCT250 18/02 A2979 RMK SC2AC1CI1 CI TR SLP093 DENSITY ALT 900FT
  • 021900Z 22017G23KT 30SM FEW045 FEW120 18/01 A2982 RMK SC2AC2 SLP103 DENSITY ALT 800FT

TAF TAF CYQB
Valid from the 02 at 18:00 until the 03 at 18:00 UTC


021738Z 0218/0318 23010G20KT P6SM FEW040 SCT120
FM030000 25010KT P6SM FEW050 OVC100
FM030800 VRB03KT P6SM FEW020 OVC050
FM031500 25005KT P6SM SCT080
BECMG 0316/0318 24010KT RMK NXT FCST BY 030000Z
ATIS : ENG : +1 418-871-6893 FRA : +1 418-871-6895
CZUL FIR / North America



MET'MAP, your aeronautical weather chart ! - Copyright ORBIFLY December 2007 - Disclaimer

ORBIFLY MET'MAP TEAM :

Programming & Development : Alexandra Zaïnal
Concept & original design : Baudouin d'Aumeries
Assistance for programming : Marc-Olivier Méhu
Technical & hardware support : Manuel Goepfert

Contact : metmap@orbifly.com




SOURCES & CREDITS :

   NOAA